Central Oregon RPC :: ONTARIO B

liberation: 2021-09-04  07:30     latitude: 44.026009     longitude: -116.952972 161 birds
# LOFT PRING MILES ARRIVAL SPEED ToWin
1 AMERICAN LOFT AU21-CORP-0329 194.487 2021-09-04 11:51:16.309 1310.117 00:00:00
2 AMERICAN LOFT AU21-CORP-0363 194.487 2021-09-04 11:51:17.035 1310.056 00:00:01
3 ROCKY TOP AU21-PNW-3505 204.913 2021-09-04 12:09:23.881 1290.801 00:04:07
4 ROCKY TOP AU21-ARPU-11206 204.913 2021-09-04 12:12:22.273 1277.210 00:07:06
5 TOPIGEONUSA AU21-CORP-0697 212.45 2021-09-04 12:31:01.998 1242.093 00:15:38
6 whistling wings AU21-CORP-0265 215.396 2021-09-04 12:41:46.726 1215.919 00:22:25
7 STEELE LOFT AU21-CORP-0126 213.509 2021-09-04 12:39:30.049 1214.136 00:22:40
8 STEELE LOFT AU21-CORP-0104 213.509 2021-09-04 12:39:34.497 1213.846 00:22:45
9 STEELE LOFT AU21-CORP-0109 213.509 2021-09-04 12:39:38.753 1213.568 00:22:49
10 whistling wings AU21-CORP-0941 215.396 2021-09-04 12:49:16.198 1187.389 00:29:54
11 LUCAS CRAMER AU21-CORP-465 209.07 2021-09-04 12:42:59.231 1175.649 00:32:07
12 whistling wings AU21-CORP-0254 215.396 2021-09-04 13:28:41.639 1056.883 01:09:20
13 RUETER FAMILY LOFT AU21-CORP-812 204.933 2021-09-04 13:55:47.154 934.927 01:50:29
14 RUETER FAMILY LOFT AU21-CORP-824 204.933 2021-09-04 14:12:34.178 895.948 02:07:16
15 RUETER FAMILY LOFT AU21-CORP-809 204.933 2021-09-04 14:12:53.299 895.239 02:07:35
16 RUETER FAMILY LOFT AU21-CORP-884 204.933 2021-09-04 14:13:01.068 894.952 02:07:43
17 RUETER FAMILY LOFT AU21-CORP-920 204.933 2021-09-04 14:40:51.104 837.136 02:35:33
18 LUCAS CRAMER AU21-CORP-411 209.07 2021-09-04 15:04:57.183 808.793 02:54:05
19 RUETER FAMILY LOFT AU21-CORP-861 204.933 2021-09-04 15:18:50.113 769.314 03:13:32
20 whistling wings AU21-CORP-0253 215.396 2021-09-04 15:58:45.285 745.148 03:39:24
21 RUETER FAMILY LOFT AU21-CORP-895 204.933 2021-09-04 16:15:17.121 686.639 04:09:59
22 LUCAS CRAMER AU21-CORP-448 209.07 2021-09-04 16:52:31.742 654.123 04:41:40
23 RUETER FAMILY LOFT AU21-CORP-850 204.933 2021-09-04 17:15:27.965 616.059 05:10:10
24 LUCAS CRAMER AU21-CORP-464 209.07 2021-09-04 17:45:36.679 597.720 05:34:45
25 RUETER FAMILY LOFT AU21-CORP-817 204.933 2021-09-04 17:58:45.931 573.634 05:53:28
26 RUETER FAMILY LOFT AU21-CORP-860 204.933 2021-09-04 17:58:53.793 573.515 05:53:35
27 RUETER FAMILY LOFT AU21-CORP-940 204.933 2021-09-04 19:20:16.261 507.808 07:14:58
28 whistling wings AU21-CORP-0767 215.396 2021-09-05 07:16:31.428 457.595 08:59:06
29 RUETER FAMILY LOFT AU21-CORP-892 204.933 2021-09-05 06:57:52.220 445.394 08:54:30
30 LUCAS CRAMER AU21-CORP-461 209.07 2021-09-05 07:16:22.547 444.234 09:07:27
31 TOPIGEONUSA AU21-JEDD-11820 212.45 2021-09-05 08:25:24.361 416.689 10:11:56
32 whistling wings AU21-CORP-1101 215.396 2021-09-05 08:39:10.822 416.082 10:21:45
33 STEELE LOFT AU21-CORP-0121 213.509 2021-09-05 08:44:17.237 410.137 10:29:24
34 RUETER FAMILY LOFT AU21-CORP-942 204.933 2021-09-05 08:09:03.896 409.401 10:05:42
35 LUCAS CRAMER AU21-CORP-453 209.07 2021-09-05 08:49:34.503 399.305 10:40:39
36 ROCKY TOP AU21-JEDD-11824 204.913 2021-09-05 08:44:23.027 393.584 10:41:02
37 LUCAS CRAMER AU21-CORP-405 209.07 2021-09-05 09:18:11.195 387.281 11:09:15
38 LUCAS CRAMER AU21-CORP-466 209.07 2021-09-05 09:31:49.901 381.797 11:22:54
39 LUCAS CRAMER AU21-CORP-435 209.07 2021-09-05 10:19:14.701 363.895 12:10:19
40 LUCAS CRAMER AU21-CORP-408 209.07 2021-09-05 10:30:56.687 359.733 12:22:01
41 RUETER FAMILY LOFT AU21-CORP-822 204.933 2021-09-05 10:48:09.971 346.776 12:44:48
42 ROCKY TOP AU21-ARPU-11217 204.913 2021-09-05 11:15:24.115 337.895 13:12:03
43 STEELE LOFT AU21-BORD-21047 213.509 2021-09-05 13:00:14.193 320.582 14:45:21
44 TOPIGEONUSA AU21-JEDD-11899 212.45 2021-09-05 13:43:41.553 307.587 15:30:13
45 RUETER FAMILY LOFT AU21-CORP-949 204.933 2021-09-05 14:04:26.351 291.726 16:01:04
46 RUETER FAMILY LOFT AU21-CORP-966 204.933 2021-09-05 15:09:18.028 277.184 17:05:56
47 STEELE LOFT AU21-CORP-0120 213.509 2021-09-06 08:19:02.930 217.216 24:03:08
AMERICAN LOFT AU21-CORP-0305 0 0000-00-00 00:00:00.000 0.000 00:00:00
AMERICAN LOFT AU21-CORP-0310 0 0000-00-00 00:00:00.000 0.000 00:00:00
AMERICAN LOFT AU21-CORP-0311 0 0000-00-00 00:00:00.000 0.000 00:00:00
AMERICAN LOFT AU21-CORP-0313 0 0000-00-00 00:00:00.000 0.000 00:00:00
AMERICAN LOFT AU21-CORP-0314 0 0000-00-00 00:00:00.000 0.000 00:00:00
AMERICAN LOFT AU21-CORP-0322 0 0000-00-00 00:00:00.000 0.000 00:00:00
AMERICAN LOFT AU21-CORP-0326 0 0000-00-00 00:00:00.000 0.000 00:00:00
AMERICAN LOFT AU21-CORP-0336 0 0000-00-00 00:00:00.000 0.000 00:00:00
AMERICAN LOFT AU21-CORP-0341 0 0000-00-00 00:00:00.000 0.000 00:00:00
AMERICAN LOFT AU21-CORP-0342 0 0000-00-00 00:00:00.000 0.000 00:00:00
AMERICAN LOFT AU21-CORP-0345 0 0000-00-00 00:00:00.000 0.000 00:00:00
AMERICAN LOFT AU21-CORP-0347 0 0000-00-00 00:00:00.000 0.000 00:00:00
AMERICAN LOFT AU21-CORP-0349 0 0000-00-00 00:00:00.000 0.000 00:00:00
AMERICAN LOFT AU21-CORP-034O 0 0000-00-00 00:00:00.000 0.000 00:00:00
AMERICAN LOFT AU21-CORP-0350 0 0000-00-00 00:00:00.000 0.000 00:00:00
AMERICAN LOFT AU21-CORP-0354 0 0000-00-00 00:00:00.000 0.000 00:00:00
AMERICAN LOFT AU21-CORP-0355 0 0000-00-00 00:00:00.000 0.000 00:00:00
AMERICAN LOFT AU21-CORP-0358 0 0000-00-00 00:00:00.000 0.000 00:00:00
AMERICAN LOFT AU21-CORP-0365 0 0000-00-00 00:00:00.000 0.000 00:00:00
AMERICAN LOFT AU21-CORP-0366 0 0000-00-00 00:00:00.000 0.000 00:00:00
AMERICAN LOFT AU21-CORP-0367 0 0000-00-00 00:00:00.000 0.000 00:00:00
AMERICAN LOFT AU21-CORP-0368 0 0000-00-00 00:00:00.000 0.000 00:00:00
AMERICAN LOFT AU21-CORP-0371 0 0000-00-00 00:00:00.000 0.000 00:00:00
AMERICAN LOFT AU21-CORP-0374 0 0000-00-00 00:00:00.000 0.000 00:00:00
AMERICAN LOFT AU21-CORP-0375 0 0000-00-00 00:00:00.000 0.000 00:00:00
AMERICAN LOFT AU21-CORP-0379 0 0000-00-00 00:00:00.000 0.000 00:00:00
AMERICAN LOFT AU21-CORP-0387 0 0000-00-00 00:00:00.000 0.000 00:00:00
AMERICAN LOFT AU21-CORP-0389 0 0000-00-00 00:00:00.000 0.000 00:00:00
LUCAS CRAMER AU21-ARC-5149 0 0000-00-00 00:00:00.000 0.000 00:00:00
LUCAS CRAMER AU21-CORP-401 0 0000-00-00 00:00:00.000 0.000 00:00:00
LUCAS CRAMER AU21-CORP-403 0 0000-00-00 00:00:00.000 0.000 00:00:00
LUCAS CRAMER AU21-CORP-404 0 0000-00-00 00:00:00.000 0.000 00:00:00
LUCAS CRAMER AU21-CORP-406 0 0000-00-00 00:00:00.000 0.000 00:00:00
LUCAS CRAMER AU21-CORP-413 0 0000-00-00 00:00:00.000 0.000 00:00:00
LUCAS CRAMER AU21-CORP-414 0 0000-00-00 00:00:00.000 0.000 00:00:00
LUCAS CRAMER AU21-CORP-429 0 0000-00-00 00:00:00.000 0.000 00:00:00
LUCAS CRAMER AU21-CORP-434 0 0000-00-00 00:00:00.000 0.000 00:00:00
LUCAS CRAMER AU21-CORP-442 0 0000-00-00 00:00:00.000 0.000 00:00:00
LUCAS CRAMER AU21-CORP-443 0 0000-00-00 00:00:00.000 0.000 00:00:00
LUCAS CRAMER AU21-CORP-444 0 0000-00-00 00:00:00.000 0.000 00:00:00
LUCAS CRAMER AU21-CORP-445 0 0000-00-00 00:00:00.000 0.000 00:00:00
LUCAS CRAMER AU21-CORP-449 0 0000-00-00 00:00:00.000 0.000 00:00:00
LUCAS CRAMER AU21-CORP-452 0 0000-00-00 00:00:00.000 0.000 00:00:00
LUCAS CRAMER AU21-CORP-454 0 0000-00-00 00:00:00.000 0.000 00:00:00
LUCAS CRAMER AU21-CORP-458 0 0000-00-00 00:00:00.000 0.000 00:00:00
LUCAS CRAMER AU21-CORP-459 0 0000-00-00 00:00:00.000 0.000 00:00:00
LUCAS CRAMER AU21-CORP-462 0 0000-00-00 00:00:00.000 0.000 00:00:00
ROCKY TOP AU21-ARPU-11208 0 0000-00-00 00:00:00.000 0.000 00:00:00
ROCKY TOP AU21-ARPU-11209 0 0000-00-00 00:00:00.000 0.000 00:00:00
ROCKY TOP AU21-ARPU-11214 0 0000-00-00 00:00:00.000 0.000 00:00:00
ROCKY TOP AU21-ARPU-11232 0 0000-00-00 00:00:00.000 0.000 00:00:00
ROCKY TOP AU21-CORP-0704 0 0000-00-00 00:00:00.000 0.000 00:00:00
ROCKY TOP AU21-CORP-0712 0 0000-00-00 00:00:00.000 0.000 00:00:00
ROCKY TOP AU21-CORP-0744 0 0000-00-00 00:00:00.000 0.000 00:00:00
ROCKY TOP AU21-CORP-0754 0 0000-00-00 00:00:00.000 0.000 00:00:00
ROCKY TOP AU21-CORP-0762 0 0000-00-00 00:00:00.000 0.000 00:00:00
ROCKY TOP AU21-JEDD-11825 0 0000-00-00 00:00:00.000 0.000 00:00:00
ROCKY TOP AU21-JEDD-11826 0 0000-00-00 00:00:00.000 0.000 00:00:00
ROCKY TOP AU21-JEDD-11827 0 0000-00-00 00:00:00.000 0.000 00:00:00
ROCKY TOP AU21-PNW-3508 0 0000-00-00 00:00:00.000 0.000 00:00:00
ROCKY TOP AU21-RARE-0008 0 0000-00-00 00:00:00.000 0.000 00:00:00
ROCKY TOP AU21-RARE-0009 0 0000-00-00 00:00:00.000 0.000 00:00:00
RUETER FAMILY LOFT AU21-CORP-802 0 0000-00-00 00:00:00.000 0.000 00:00:00
RUETER FAMILY LOFT AU21-CORP-803 0 0000-00-00 00:00:00.000 0.000 00:00:00
RUETER FAMILY LOFT AU21-CORP-811 0 0000-00-00 00:00:00.000 0.000 00:00:00
RUETER FAMILY LOFT AU21-CORP-821 0 0000-00-00 00:00:00.000 0.000 00:00:00
RUETER FAMILY LOFT AU21-CORP-832 0 0000-00-00 00:00:00.000 0.000 00:00:00
RUETER FAMILY LOFT AU21-CORP-873 0 0000-00-00 00:00:00.000 0.000 00:00:00
RUETER FAMILY LOFT AU21-CORP-876 0 0000-00-00 00:00:00.000 0.000 00:00:00
RUETER FAMILY LOFT AU21-CORP-900 0 0000-00-00 00:00:00.000 0.000 00:00:00
RUETER FAMILY LOFT AU21-CORP-912 0 0000-00-00 00:00:00.000 0.000 00:00:00
RUETER FAMILY LOFT AU21-CORP-915 0 0000-00-00 00:00:00.000 0.000 00:00:00
RUETER FAMILY LOFT AU21-CORP-947 0 0000-00-00 00:00:00.000 0.000 00:00:00
RUETER FAMILY LOFT AU21-CORP-950 0 0000-00-00 00:00:00.000 0.000 00:00:00
RUETER FAMILY LOFT AU21-CORP-951 0 0000-00-00 00:00:00.000 0.000 00:00:00
RUETER FAMILY LOFT AU21-CORP-953 0 0000-00-00 00:00:00.000 0.000 00:00:00
RUETER FAMILY LOFT AU21-CORP-959 0 0000-00-00 00:00:00.000 0.000 00:00:00
RUETER FAMILY LOFT AU21-CORP-964 0 0000-00-00 00:00:00.000 0.000 00:00:00
RUETER FAMILY LOFT AU21-CORP-968 0 0000-00-00 00:00:00.000 0.000 00:00:00
RUETER FAMILY LOFT AU21-CORP-971 0 0000-00-00 00:00:00.000 0.000 00:00:00
STEELE LOFT AU21-BORD-21053 0 0000-00-00 00:00:00.000 0.000 00:00:00
STEELE LOFT AU21-CORP-0106 0 0000-00-00 00:00:00.000 0.000 00:00:00
STEELE LOFT AU21-CORP-0122 0 0000-00-00 00:00:00.000 0.000 00:00:00
STEELE LOFT AU21-CORP-0124 0 0000-00-00 00:00:00.000 0.000 00:00:00
STEELE LOFT AU21-CORP-0125 0 0000-00-00 00:00:00.000 0.000 00:00:00
STEELE LOFT AU21-CORP-0127 0 0000-00-00 00:00:00.000 0.000 00:00:00
STEELE LOFT AU21-CORP-0141 0 0000-00-00 00:00:00.000 0.000 00:00:00
STEELE LOFT AU21-CORP-0142 0 0000-00-00 00:00:00.000 0.000 00:00:00
STEELE LOFT AU21-CORP-0147 0 0000-00-00 00:00:00.000 0.000 00:00:00
STEELE LOFT AU21-CORP-0159 0 0000-00-00 00:00:00.000 0.000 00:00:00
STEELE LOFT AU21-CORP-0161 0 0000-00-00 00:00:00.000 0.000 00:00:00
STEELE LOFT AU21-CORP-0162 0 0000-00-00 00:00:00.000 0.000 00:00:00
STEELE LOFT AU21-CORP-0167 0 0000-00-00 00:00:00.000 0.000 00:00:00
STEELE LOFT AU21-CORP-0175 0 0000-00-00 00:00:00.000 0.000 00:00:00
STEELE LOFT AU21-CORP-0177 0 0000-00-00 00:00:00.000 0.000 00:00:00
STEELE LOFT AU21-CORP-0181 0 0000-00-00 00:00:00.000 0.000 00:00:00
STEELE LOFT AU21-CORP-0185 0 0000-00-00 00:00:00.000 0.000 00:00:00
STEELE LOFT AU21-CORP-0195 0 0000-00-00 00:00:00.000 0.000 00:00:00
STEELE LOFT AU21-CORP-0197 0 0000-00-00 00:00:00.000 0.000 00:00:00
STEELE LOFT AU21-CORP-0200 0 0000-00-00 00:00:00.000 0.000 00:00:00
STEELE LOFT AU21-CORP-0252 0 0000-00-00 00:00:00.000 0.000 00:00:00
TOPIGEONUSA AU21-CORP-0144 0 0000-00-00 00:00:00.000 0.000 00:00:00
TOPIGEONUSA AU21-CORP-0196 0 0000-00-00 00:00:00.000 0.000 00:00:00
TOPIGEONUSA AU21-CORP-1013 0 0000-00-00 00:00:00.000 0.000 00:00:00
TOPIGEONUSA AU21-JEDD-1174 0 0000-00-00 00:00:00.000 0.000 00:00:00
TOPIGEONUSA AU21-JEDD-11883 0 0000-00-00 00:00:00.000 0.000 00:00:00
TOPIGEONUSA AU21-JEDD-1191 0 0000-00-00 00:00:00.000 0.000 00:00:00
TOPIGEONUSA AU21-MDC-1204 0 0000-00-00 00:00:00.000 0.000 00:00:00
TOPIGEONUSA AU21-MDC-1211 0 0000-00-00 00:00:00.000 0.000 00:00:00
TOPIGEONUSA AU21-MDC-1219 0 0000-00-00 00:00:00.000 0.000 00:00:00
TOPIGEONUSA AU21-MDC-1223 0 0000-00-00 00:00:00.000 0.000 00:00:00
TOPIGEONUSA AU21-MDC-1225 0 0000-00-00 00:00:00.000 0.000 00:00:00
whistling wings AU21-CORP-0260 0 0000-00-00 00:00:00.000 0.000 00:00:00
whistling wings AU21-CORP-0264 0 0000-00-00 00:00:00.000 0.000 00:00:00